TAF/METAR LISTING

Current time:7/18/15:53 Z
Looking Back to:7/18/15:53 Z, going back 0 hour(s)

METAR:

PAFA 181453Z 10004KT 10SM BKN075 BKN110 16/13 A2977 RMK AO2
SLP084 T01560128 53017 $ =

______________________________________

TAF:
TAFAFA
TAF
PAFA 181138Z 1812/1918 VRB06KT P6SM BKN080 BKN100 BKN200
FM182200 VRB06G18KT P6SM VCTS BKN050CB BKN100 BKN200
FM190600 VRB06KT P6SM VCSH BKN050 BKN100 BKN200 =